sensor_id;sensor_type;location;lat;lon;timestamp;temperature;humidity
23683;DHT22;24897;53.514;10.482;2023-11-19T00:01:08;5.90;99.90
23683;DHT22;24897;53.514;10.482;2023-11-19T00:03:52;6.20;99.90
23683;DHT22;24897;53.514;10.482;2023-11-19T00:06:37;6.00;99.90
23683;DHT22;24897;53.514;10.482;2023-11-19T00:09:30;6.30;99.90
23683;DHT22;24897;53.514;10.482;2023-11-19T00:12:21;6.00;99.90
23683;DHT22;24897;53.514;10.482;2023-11-19T00:15:20;6.00;99.90
23683;DHT22;24897;53.514;10.482;2023-11-19T00:18:05;6.00;99.90
23683;DHT22;24897;53.514;10.482;2023-11-19T00:20:55;5.50;99.90
23683;DHT22;24897;53.514;10.482;2023-11-19T00:23:39;5.80;99.90
23683;DHT22;24897;53.514;10.482;2023-11-19T00:26:23;6.00;99.90
23683;DHT22;24897;53.514;10.482;2023-11-19T00:29:10;6.10;99.90
23683;DHT22;24897;53.514;10.482;2023-11-19T00:31:54;7.20;99.90
23683;DHT22;24897;53.514;10.482;2023-11-19T00:34:39;6.10;99.90
23683;DHT22;24897;53.514;10.482;2023-11-19T00:37:23;6.10;99.90
23683;DHT22;24897;53.514;10.482;2023-11-19T00:40:13;6.10;99.90
23683;DHT22;24897;53.514;10.482;2023-11-19T00:43:00;6.10;99.90
23683;DHT22;24897;53.514;10.482;2023-11-19T00:45:46;6.20;99.90
23683;DHT22;24897;53.514;10.482;2023-11-19T00:48:44;6.90;99.90
23683;DHT22;24897;53.514;10.482;2023-11-19T00:51:34;6.20;99.90
23683;DHT22;24897;53.514;10.482;2023-11-19T00:54:29;6.20;99.90
23683;DHT22;24897;53.514;10.482;2023-11-19T00:57:24;6.10;99.90
23683;DHT22;24897;53.514;10.482;2023-11-19T01:00:40;6.10;99.90
23683;DHT22;24897;53.514;10.482;2023-11-19T01:03:43;6.10;99.90
23683;DHT22;24897;53.514;10.482;2023-11-19T01:06:29;6.10;99.90
23683;DHT22;24897;53.514;10.482;2023-11-19T01:09:19;6.10;99.90
23683;DHT22;24897;53.514;10.482;2023-11-19T01:12:05;6.20;99.90
23683;DHT22;24897;53.514;10.482;2023-11-19T01:14:55;6.10;99.90
23683;DHT22;24897;53.514;10.482;2023-11-19T01:17:43;6.20;99.90
23683;DHT22;24897;53.514;10.482;2023-11-19T01:20:30;6.20;99.90
23683;DHT22;24897;53.514;10.482;2023-11-19T01:23:27;6.20;99.90
23683;DHT22;24897;53.514;10.482;2023-11-19T01:26:15;6.10;99.90
23683;DHT22;24897;53.514;10.482;2023-11-19T01:29:40;6.10;99.90
23683;DHT22;24897;53.514;10.482;2023-11-19T01:36:23;6.10;99.90
23683;DHT22;24897;53.514;10.482;2023-11-19T01:43:03;6.30;99.90
23683;DHT22;24897;53.514;10.482;2023-11-19T01:46:04;6.20;99.90
23683;DHT22;24897;53.514;10.482;2023-11-19T01:49:13;6.10;99.90
23683;DHT22;24897;53.514;10.482;2023-11-19T01:52:57;6.10;99.90
23683;DHT22;24897;53.514;10.482;2023-11-19T01:56:30;5.90;99.90
23683;DHT22;24897;53.514;10.482;2023-11-19T01:59:29;6.10;99.90
23683;DHT22;24897;53.514;10.482;2023-11-19T02:02:27;6.20;99.90
23683;DHT22;24897;53.514;10.482;2023-11-19T02:05:36;6.20;99.90
23683;DHT22;24897;53.514;10.482;2023-11-19T02:12:36;6.10;99.90
23683;DHT22;24897;53.514;10.482;2023-11-19T02:18:58;6.20;99.90
23683;DHT22;24897;53.514;10.482;2023-11-19T02:21:52;6.20;99.90
23683;DHT22;24897;53.514;10.482;2023-11-19T02:24:39;6.30;99.90
23683;DHT22;24897;53.514;10.482;2023-11-19T02:30:30;6.20;99.90
23683;DHT22;24897;53.514;10.482;2023-11-19T02:33:47;6.20;99.90
23683;DHT22;24897;53.514;10.482;2023-11-19T02:36:41;6.20;99.90
23683;DHT22;24897;53.514;10.482;2023-11-19T02:39:37;6.20;99.90
23683;DHT22;24897;53.514;10.482;2023-11-19T02:57:46;6.30;99.90
23683;DHT22;24897;53.514;10.482;2023-11-19T03:01:21;6.20;99.90
23683;DHT22;24897;53.514;10.482;2023-11-19T03:04:40;6.30;99.90
23683;DHT22;24897;53.514;10.482;2023-11-19T03:15:03;6.30;99.90
23683;DHT22;24897;53.514;10.482;2023-11-19T03:18:05;6.40;99.90
23683;DHT22;24897;53.514;10.482;2023-11-19T03:21:31;6.30;99.90
23683;DHT22;24897;53.514;10.482;2023-11-19T03:25:03;6.40;99.90
23683;DHT22;24897;53.514;10.482;2023-11-19T03:27:58;6.40;99.90
23683;DHT22;24897;53.514;10.482;2023-11-19T03:30:48;6.40;99.90
23683;DHT22;24897;53.514;10.482;2023-11-19T03:34:23;6.40;99.90
23683;DHT22;24897;53.514;10.482;2023-11-19T03:41:21;6.50;99.90
23683;DHT22;24897;53.514;10.482;2023-11-19T03:44:46;6.40;99.90
23683;DHT22;24897;53.514;10.482;2023-11-19T03:47:43;6.50;99.90
23683;DHT22;24897;53.514;10.482;2023-11-19T03:50:39;6.60;99.90
23683;DHT22;24897;53.514;10.482;2023-11-19T03:57:06;6.60;99.90
23683;DHT22;24897;53.514;10.482;2023-11-19T04:03:39;6.60;99.90
23683;DHT22;24897;53.514;10.482;2023-11-19T04:06:42;6.60;99.90
23683;DHT22;24897;53.514;10.482;2023-11-19T04:13:37;6.70;99.90
23683;DHT22;24897;53.514;10.482;2023-11-19T04:28:19;6.90;99.90
23683;DHT22;24897;53.514;10.482;2023-11-19T04:31:31;7.00;99.90
23683;DHT22;24897;53.514;10.482;2023-11-19T04:34:33;7.70;99.90
23683;DHT22;24897;53.514;10.482;2023-11-19T04:37:44;7.00;99.90
23683;DHT22;24897;53.514;10.482;2023-11-19T04:41:01;7.10;99.90
23683;DHT22;24897;53.514;10.482;2023-11-19T04:47:11;8.30;99.90
23683;DHT22;24897;53.514;10.482;2023-11-19T04:49:58;7.20;99.90
23683;DHT22;24897;53.514;10.482;2023-11-19T04:52:52;7.20;99.90
23683;DHT22;24897;53.514;10.482;2023-11-19T04:55:43;7.30;99.90
23683;DHT22;24897;53.514;10.482;2023-11-19T04:58:38;7.20;99.90
23683;DHT22;24897;53.514;10.482;2023-11-19T05:01:30;7.30;99.90
23683;DHT22;24897;53.514;10.482;2023-11-19T05:04:44;7.20;99.90
23683;DHT22;24897;53.514;10.482;2023-11-19T05:07:40;7.50;99.90
23683;DHT22;24897;53.514;10.482;2023-11-19T05:10:44;7.20;99.90
23683;DHT22;24897;53.514;10.482;2023-11-19T05:13:55;8.00;99.90
23683;DHT22;24897;53.514;10.482;2023-11-19T05:16:50;7.30;99.90
23683;DHT22;24897;53.514;10.482;2023-11-19T05:19:35;7.40;99.90
23683;DHT22;24897;53.514;10.482;2023-11-19T05:22:30;7.40;99.90
23683;DHT22;24897;53.514;10.482;2023-11-19T05:25:23;7.40;99.90
23683;DHT22;24897;53.514;10.482;2023-11-19T05:28:16;7.40;99.90
23683;DHT22;24897;53.514;10.482;2023-11-19T05:31:03;7.60;99.90
23683;DHT22;24897;53.514;10.482;2023-11-19T05:33:57;7.50;99.90
23683;DHT22;24897;53.514;10.482;2023-11-19T05:36:42;7.60;99.90
23683;DHT22;24897;53.514;10.482;2023-11-19T05:39:28;8.30;99.90
23683;DHT22;24897;53.514;10.482;2023-11-19T05:42:20;7.80;99.90
23683;DHT22;24897;53.514;10.482;2023-11-19T05:45:05;8.70;99.90
23683;DHT22;24897;53.514;10.482;2023-11-19T05:47:52;6.70;99.90
23683;DHT22;24897;53.514;10.482;2023-11-19T05:50:36;7.90;99.90
23683;DHT22;24897;53.514;10.482;2023-11-19T05:53:20;8.00;99.90
23683;DHT22;24897;53.514;10.482;2023-11-19T05:56:04;9.10;99.90
23683;DHT22;24897;53.514;10.482;2023-11-19T05:58:49;8.10;99.90
23683;DHT22;24897;53.514;10.482;2023-11-19T06:01:36;8.20;99.90
23683;DHT22;24897;53.514;10.482;2023-11-19T06:04:20;8.20;99.90
23683;DHT22;24897;53.514;10.482;2023-11-19T06:07:05;9.30;99.90
23683;DHT22;24897;53.514;10.482;2023-11-19T06:09:51;8.30;99.90
23683;DHT22;24897;53.514;10.482;2023-11-19T06:12:38;8.40;99.90
23683;DHT22;24897;53.514;10.482;2023-11-19T06:15:26;9.30;99.90
23683;DHT22;24897;53.514;10.482;2023-11-19T06:18:11;8.50;99.90
23683;DHT22;24897;53.514;10.482;2023-11-19T06:20:56;9.10;99.90
23683;DHT22;24897;53.514;10.482;2023-11-19T06:23:40;10.00;99.90
23683;DHT22;24897;53.514;10.482;2023-11-19T06:26:24;8.70;99.90
23683;DHT22;24897;53.514;10.482;2023-11-19T06:29:08;8.70;99.90
23683;DHT22;24897;53.514;10.482;2023-11-19T06:31:52;8.80;99.90
23683;DHT22;24897;53.514;10.482;2023-11-19T06:34:36;8.80;99.90
23683;DHT22;24897;53.514;10.482;2023-11-19T06:37:20;8.90;99.90
23683;DHT22;24897;53.514;10.482;2023-11-19T06:40:05;8.90;99.90
23683;DHT22;24897;53.514;10.482;2023-11-19T06:42:50;9.00;99.90
23683;DHT22;24897;53.514;10.482;2023-11-19T06:45:36;9.10;99.90
23683;DHT22;24897;53.514;10.482;2023-11-19T06:48:21;9.20;99.90
23683;DHT22;24897;53.514;10.482;2023-11-19T06:51:05;10.10;99.90
23683;DHT22;24897;53.514;10.482;2023-11-19T06:53:49;9.20;99.90
23683;DHT22;24897;53.514;10.482;2023-11-19T06:56:33;9.50;99.90
23683;DHT22;24897;53.514;10.482;2023-11-19T06:59:18;10.70;99.90
23683;DHT22;24897;53.514;10.482;2023-11-19T07:02:03;9.70;99.90
23683;DHT22;24897;53.514;10.482;2023-11-19T07:04:48;10.30;99.90
23683;DHT22;24897;53.514;10.482;2023-11-19T07:07:33;9.90;99.90
23683;DHT22;24897;53.514;10.482;2023-11-19T07:10:17;10.00;99.90
23683;DHT22;24897;53.514;10.482;2023-11-19T07:13:02;10.10;99.90
23683;DHT22;24897;53.514;10.482;2023-11-19T07:15:47;10.60;99.90
23683;DHT22;24897;53.514;10.482;2023-11-19T07:18:31;10.30;99.90
23683;DHT22;24897;53.514;10.482;2023-11-19T07:21:15;10.30;99.90
23683;DHT22;24897;53.514;10.482;2023-11-19T07:23:59;10.40;99.90
23683;DHT22;24897;53.514;10.482;2023-11-19T07:26:45;10.40;99.90
23683;DHT22;24897;53.514;10.482;2023-11-19T07:29:29;10.70;99.90
23683;DHT22;24897;53.514;10.482;2023-11-19T07:32:15;11.80;99.90
23683;DHT22;24897;53.514;10.482;2023-11-19T07:34:59;10.60;99.90
23683;DHT22;24897;53.514;10.482;2023-11-19T07:37:43;10.60;99.90
23683;DHT22;24897;53.514;10.482;2023-11-19T07:40:27;11.60;99.90
23683;DHT22;24897;53.514;10.482;2023-11-19T07:43:12;11.20;99.90
23683;DHT22;24897;53.514;10.482;2023-11-19T07:45:56;10.80;99.90
23683;DHT22;24897;53.514;10.482;2023-11-19T07:48:45;11.60;99.90
23683;DHT22;24897;53.514;10.482;2023-11-19T07:51:36;11.60;99.90
23683;DHT22;24897;53.514;10.482;2023-11-19T07:58:15;12.00;99.90
23683;DHT22;24897;53.514;10.482;2023-11-19T08:04:44;11.10;99.90
23683;DHT22;24897;53.514;10.482;2023-11-19T08:10:50;11.30;99.90
23683;DHT22;24897;53.514;10.482;2023-11-19T08:13:35;11.80;99.90
23683;DHT22;24897;53.514;10.482;2023-11-19T08:16:19;11.40;99.90
23683;DHT22;24897;53.514;10.482;2023-11-19T08:19:04;11.50;99.90
23683;DHT22;24897;53.514;10.482;2023-11-19T08:21:48;11.50;99.90
23683;DHT22;24897;53.514;10.482;2023-11-19T08:24:32;11.60;99.90
23683;DHT22;24897;53.514;10.482;2023-11-19T08:27:16;11.60;99.90
23683;DHT22;24897;53.514;10.482;2023-11-19T08:30:00;11.60;99.90
23683;DHT22;24897;53.514;10.482;2023-11-19T08:32:44;11.60;99.90
23683;DHT22;24897;53.514;10.482;2023-11-19T08:35:30;11.70;99.90
23683;DHT22;24897;53.514;10.482;2023-11-19T08:38:14;11.70;99.90
23683;DHT22;24897;53.514;10.482;2023-11-19T08:40:58;11.70;99.90
23683;DHT22;24897;53.514;10.482;2023-11-19T08:43:45;11.70;99.90
23683;DHT22;24897;53.514;10.482;2023-11-19T08:46:29;11.70;99.90
23683;DHT22;24897;53.514;10.482;2023-11-19T08:49:14;11.70;99.90
23683;DHT22;24897;53.514;10.482;2023-11-19T08:51:58;11.70;99.90
23683;DHT22;24897;53.514;10.482;2023-11-19T08:54:45;11.70;99.90
23683;DHT22;24897;53.514;10.482;2023-11-19T08:57:29;11.70;99.90
23683;DHT22;24897;53.514;10.482;2023-11-19T09:00:13;11.70;99.90
23683;DHT22;24897;53.514;10.482;2023-11-19T09:02:58;11.70;99.90
23683;DHT22;24897;53.514;10.482;2023-11-19T09:05:43;11.70;99.90
23683;DHT22;24897;53.514;10.482;2023-11-19T09:08:27;11.80;99.90
23683;DHT22;24897;53.514;10.482;2023-11-19T09:11:11;11.80;99.90
23683;DHT22;24897;53.514;10.482;2023-11-19T09:13:55;11.90;99.90
23683;DHT22;24897;53.514;10.482;2023-11-19T09:16:39;11.80;99.90
23683;DHT22;24897;53.514;10.482;2023-11-19T09:19:24;11.80;99.90
23683;DHT22;24897;53.514;10.482;2023-11-19T09:22:08;11.90;99.90
23683;DHT22;24897;53.514;10.482;2023-11-19T09:24:52;11.90;99.90
23683;DHT22;24897;53.514;10.482;2023-11-19T09:27:36;11.90;99.90
23683;DHT22;24897;53.514;10.482;2023-11-19T09:30:20;12.00;99.90
23683;DHT22;24897;53.514;10.482;2023-11-19T09:33:04;12.00;99.90
23683;DHT22;24897;53.514;10.482;2023-11-19T09:35:49;11.90;99.90
23683;DHT22;24897;53.514;10.482;2023-11-19T09:38:34;12.10;99.90
23683;DHT22;24897;53.514;10.482;2023-11-19T09:41:23;12.10;99.90
23683;DHT22;24897;53.514;10.482;2023-11-19T09:44:09;12.30;99.90
23683;DHT22;24897;53.514;10.482;2023-11-19T09:46:53;12.50;99.90
23683;DHT22;24897;53.514;10.482;2023-11-19T09:49:37;12.60;99.90
23683;DHT22;24897;53.514;10.482;2023-11-19T09:52:22;12.60;99.90
23683;DHT22;24897;53.514;10.482;2023-11-19T09:55:08;12.50;99.90
23683;DHT22;24897;53.514;10.482;2023-11-19T09:57:52;12.40;99.90
23683;DHT22;24897;53.514;10.482;2023-11-19T10:00:37;12.40;99.90
23683;DHT22;24897;53.514;10.482;2023-11-19T10:03:22;12.40;99.90
23683;DHT22;24897;53.514;10.482;2023-11-19T10:06:07;12.40;99.90
23683;DHT22;24897;53.514;10.482;2023-11-19T10:08:52;12.50;99.90
23683;DHT22;24897;53.514;10.482;2023-11-19T10:11:37;12.60;99.90
23683;DHT22;24897;53.514;10.482;2023-11-19T10:14:23;12.80;99.90
23683;DHT22;24897;53.514;10.482;2023-11-19T10:17:07;13.00;99.90
23683;DHT22;24897;53.514;10.482;2023-11-19T10:19:52;13.00;99.90
23683;DHT22;24897;53.514;10.482;2023-11-19T10:22:37;13.00;99.90
23683;DHT22;24897;53.514;10.482;2023-11-19T10:28:06;13.00;99.90
23683;DHT22;24897;53.514;10.482;2023-11-19T10:30:56;13.00;99.90
23683;DHT22;24897;53.514;10.482;2023-11-19T10:33:48;13.00;99.90
23683;DHT22;24897;53.514;10.482;2023-11-19T10:36:39;13.10;99.90
23683;DHT22;24897;53.514;10.482;2023-11-19T10:42:38;13.10;99.90
23683;DHT22;24897;53.514;10.482;2023-11-19T10:45:23;13.20;99.90
23683;DHT22;24897;53.514;10.482;2023-11-19T10:48:07;13.20;99.90
23683;DHT22;24897;53.514;10.482;2023-11-19T10:50:53;13.10;99.90
23683;DHT22;24897;53.514;10.482;2023-11-19T10:53:41;12.90;99.90
23683;DHT22;24897;53.514;10.482;2023-11-19T10:56:30;12.70;99.90
23683;DHT22;24897;53.514;10.482;2023-11-19T10:59:15;12.60;99.90
23683;DHT22;24897;53.514;10.482;2023-11-19T11:02:03;12.60;99.90
23683;DHT22;24897;53.514;10.482;2023-11-19T11:04:50;12.50;99.90
23683;DHT22;24897;53.514;10.482;2023-11-19T11:07:35;12.50;99.90
23683;DHT22;24897;53.514;10.482;2023-11-19T11:10:20;12.50;99.90
23683;DHT22;24897;53.514;10.482;2023-11-19T11:13:06;12.60;99.90
23683;DHT22;24897;53.514;10.482;2023-11-19T11:15:51;12.50;99.90
23683;DHT22;24897;53.514;10.482;2023-11-19T11:18:37;12.40;99.90
23683;DHT22;24897;53.514;10.482;2023-11-19T11:21:24;12.40;99.90
23683;DHT22;24897;53.514;10.482;2023-11-19T11:30:35;12.40;99.90
23683;DHT22;24897;53.514;10.482;2023-11-19T11:33:32;12.40;99.90
23683;DHT22;24897;53.514;10.482;2023-11-19T11:36:22;12.40;99.90
23683;DHT22;24897;53.514;10.482;2023-11-19T11:39:07;12.40;99.90
23683;DHT22;24897;53.514;10.482;2023-11-19T11:45:09;12.10;99.90
23683;DHT22;24897;53.514;10.482;2023-11-19T11:50:52;12.10;99.90
23683;DHT22;24897;53.514;10.482;2023-11-19T11:53:37;12.10;99.90
23683;DHT22;24897;53.514;10.482;2023-11-19T11:56:21;12.00;99.90
23683;DHT22;24897;53.514;10.482;2023-11-19T11:59:21;12.00;99.90
23683;DHT22;24897;53.514;10.482;2023-11-19T12:02:20;12.00;99.90
23683;DHT22;24897;53.514;10.482;2023-11-19T12:05:06;12.00;99.90
23683;DHT22;24897;53.514;10.482;2023-11-19T12:08:06;12.00;99.90
23683;DHT22;24897;53.514;10.482;2023-11-19T12:10:55;12.10;99.90
23683;DHT22;24897;53.514;10.482;2023-11-19T12:13:53;12.20;99.90
23683;DHT22;24897;53.514;10.482;2023-11-19T12:16:40;12.30;99.90
23683;DHT22;24897;53.514;10.482;2023-11-19T12:19:25;12.40;99.90
23683;DHT22;24897;53.514;10.482;2023-11-19T12:22:13;12.40;99.90
23683;DHT22;24897;53.514;10.482;2023-11-19T12:24:58;12.50;99.90
23683;DHT22;24897;53.514;10.482;2023-11-19T12:27:50;12.80;99.90
23683;DHT22;24897;53.514;10.482;2023-11-19T12:30:34;13.00;99.90
23683;DHT22;24897;53.514;10.482;2023-11-19T12:33:20;13.10;99.90
23683;DHT22;24897;53.514;10.482;2023-11-19T12:36:05;13.10;99.90
23683;DHT22;24897;53.514;10.482;2023-11-19T12:38:49;13.20;99.90
23683;DHT22;24897;53.514;10.482;2023-11-19T12:41:49;13.10;99.90
23683;DHT22;24897;53.514;10.482;2023-11-19T12:44:33;13.00;99.90
23683;DHT22;24897;53.514;10.482;2023-11-19T12:47:18;12.90;99.90
23683;DHT22;24897;53.514;10.482;2023-11-19T12:50:02;12.90;99.90
23683;DHT22;24897;53.514;10.482;2023-11-19T12:52:57;13.00;99.90
23683;DHT22;24897;53.514;10.482;2023-11-19T12:55:42;12.90;99.90
23683;DHT22;24897;53.514;10.482;2023-11-19T12:58:33;12.80;99.90
23683;DHT22;24897;53.514;10.482;2023-11-19T13:01:18;12.70;99.90
23683;DHT22;24897;53.514;10.482;2023-11-19T13:04:16;12.60;99.90
23683;DHT22;24897;53.514;10.482;2023-11-19T13:07:00;12.60;99.90
23683;DHT22;24897;53.514;10.482;2023-11-19T13:09:45;12.50;99.90
23683;DHT22;24897;53.514;10.482;2023-11-19T13:12:29;12.40;99.90
23683;DHT22;24897;53.514;10.482;2023-11-19T13:15:23;12.30;99.90
23683;DHT22;24897;53.514;10.482;2023-11-19T13:18:08;12.30;99.90
23683;DHT22;24897;53.514;10.482;2023-11-19T13:20:52;12.30;99.90
23683;DHT22;24897;53.514;10.482;2023-11-19T13:23:36;12.30;99.90
23683;DHT22;24897;53.514;10.482;2023-11-19T13:26:21;12.40;99.90
23683;DHT22;24897;53.514;10.482;2023-11-19T13:29:05;12.40;99.90
23683;DHT22;24897;53.514;10.482;2023-11-19T13:31:50;12.70;99.90
23683;DHT22;24897;53.514;10.482;2023-11-19T13:34:34;12.80;99.90
23683;DHT22;24897;53.514;10.482;2023-11-19T13:37:19;12.80;99.90
23683;DHT22;24897;53.514;10.482;2023-11-19T13:40:05;12.80;99.90
23683;DHT22;24897;53.514;10.482;2023-11-19T13:42:49;12.80;99.90
23683;DHT22;24897;53.514;10.482;2023-11-19T13:45:33;12.70;99.90
23683;DHT22;24897;53.514;10.482;2023-11-19T13:48:17;12.60;99.90
23683;DHT22;24897;53.514;10.482;2023-11-19T13:51:01;12.60;99.90
23683;DHT22;24897;53.514;10.482;2023-11-19T13:53:45;12.60;99.90
23683;DHT22;24897;53.514;10.482;2023-11-19T13:56:29;12.50;99.90
23683;DHT22;24897;53.514;10.482;2023-11-19T13:59:13;12.50;99.90
23683;DHT22;24897;53.514;10.482;2023-11-19T14:01:57;12.50;99.90
23683;DHT22;24897;53.514;10.482;2023-11-19T14:04:41;12.50;99.90
23683;DHT22;24897;53.514;10.482;2023-11-19T14:07:25;12.50;99.90
23683;DHT22;24897;53.514;10.482;2023-11-19T14:10:10;12.60;99.90
23683;DHT22;24897;53.514;10.482;2023-11-19T14:12:57;12.50;99.90
23683;DHT22;24897;53.514;10.482;2023-11-19T14:15:42;12.40;99.90
23683;DHT22;24897;53.514;10.482;2023-11-19T14:18:26;12.40;99.90
23683;DHT22;24897;53.514;10.482;2023-11-19T14:21:11;12.40;99.90
23683;DHT22;24897;53.514;10.482;2023-11-19T14:23:55;12.40;99.90
23683;DHT22;24897;53.514;10.482;2023-11-19T14:26:39;12.40;99.90
23683;DHT22;24897;53.514;10.482;2023-11-19T14:29:24;12.40;99.90
23683;DHT22;24897;53.514;10.482;2023-11-19T14:32:09;12.40;99.90
23683;DHT22;24897;53.514;10.482;2023-11-19T14:34:53;12.50;99.90
23683;DHT22;24897;53.514;10.482;2023-11-19T14:37:38;12.50;99.90
23683;DHT22;24897;53.514;10.482;2023-11-19T14:40:22;12.30;99.90
23683;DHT22;24897;53.514;10.482;2023-11-19T14:43:06;12.20;99.90
23683;DHT22;24897;53.514;10.482;2023-11-19T14:45:50;12.20;99.90
23683;DHT22;24897;53.514;10.482;2023-11-19T14:48:34;12.20;99.90
23683;DHT22;24897;53.514;10.482;2023-11-19T14:51:18;12.20;99.90
23683;DHT22;24897;53.514;10.482;2023-11-19T14:54:04;12.20;99.90
23683;DHT22;24897;53.514;10.482;2023-11-19T14:56:48;12.10;99.90
23683;DHT22;24897;53.514;10.482;2023-11-19T14:59:32;12.10;99.90
23683;DHT22;24897;53.514;10.482;2023-11-19T15:02:16;12.00;99.90
23683;DHT22;24897;53.514;10.482;2023-11-19T15:05:00;12.00;99.90
23683;DHT22;24897;53.514;10.482;2023-11-19T15:07:45;11.90;99.90
23683;DHT22;24897;53.514;10.482;2023-11-19T15:10:29;11.90;99.90
23683;DHT22;24897;53.514;10.482;2023-11-19T15:13:13;11.90;99.90
23683;DHT22;24897;53.514;10.482;2023-11-19T15:15:57;11.90;99.90
23683;DHT22;24897;53.514;10.482;2023-11-19T15:18:40;11.90;99.90
23683;DHT22;24897;53.514;10.482;2023-11-19T15:21:26;11.80;99.90
23683;DHT22;24897;53.514;10.482;2023-11-19T15:24:11;11.80;99.90
23683;DHT22;24897;53.514;10.482;2023-11-19T15:26:55;11.70;99.90
23683;DHT22;24897;53.514;10.482;2023-11-19T15:29:40;11.80;99.90
23683;DHT22;24897;53.514;10.482;2023-11-19T15:32:24;11.80;99.90
23683;DHT22;24897;53.514;10.482;2023-11-19T15:35:09;11.80;99.90
23683;DHT22;24897;53.514;10.482;2023-11-19T15:37:54;11.80;99.90
23683;DHT22;24897;53.514;10.482;2023-11-19T15:40:40;11.80;99.90
23683;DHT22;24897;53.514;10.482;2023-11-19T15:43:26;11.80;99.90
23683;DHT22;24897;53.514;10.482;2023-11-19T15:46:10;11.70;99.90
23683;DHT22;24897;53.514;10.482;2023-11-19T15:48:55;11.60;99.90
23683;DHT22;24897;53.514;10.482;2023-11-19T15:51:39;11.60;99.90
23683;DHT22;24897;53.514;10.482;2023-11-19T15:54:23;11.70;99.90
23683;DHT22;24897;53.514;10.482;2023-11-19T15:57:07;11.60;99.90
23683;DHT22;24897;53.514;10.482;2023-11-19T15:59:51;11.50;99.90
23683;DHT22;24897;53.514;10.482;2023-11-19T16:02:35;11.40;99.90
23683;DHT22;24897;53.514;10.482;2023-11-19T16:05:20;11.30;99.90
23683;DHT22;24897;53.514;10.482;2023-11-19T16:08:04;11.20;99.90
23683;DHT22;24897;53.514;10.482;2023-11-19T16:10:49;11.20;99.90
23683;DHT22;24897;53.514;10.482;2023-11-19T16:13:33;11.20;99.90
23683;DHT22;24897;53.514;10.482;2023-11-19T16:16:18;11.20;99.90
23683;DHT22;24897;53.514;10.482;2023-11-19T16:19:02;11.20;99.90
23683;DHT22;24897;53.514;10.482;2023-11-19T16:21:48;11.20;99.90
23683;DHT22;24897;53.514;10.482;2023-11-19T16:24:32;11.10;99.90
23683;DHT22;24897;53.514;10.482;2023-11-19T16:27:16;11.10;99.90
23683;DHT22;24897;53.514;10.482;2023-11-19T16:30:00;11.00;99.90
23683;DHT22;24897;53.514;10.482;2023-11-19T16:32:58;11.00;99.90
23683;DHT22;24897;53.514;10.482;2023-11-19T16:35:42;11.00;99.90
23683;DHT22;24897;53.514;10.482;2023-11-19T16:38:26;11.10;99.90
23683;DHT22;24897;53.514;10.482;2023-11-19T16:41:10;11.10;99.90
23683;DHT22;24897;53.514;10.482;2023-11-19T16:44:00;11.10;99.90
23683;DHT22;24897;53.514;10.482;2023-11-19T16:46:47;11.20;99.90
23683;DHT22;24897;53.514;10.482;2023-11-19T16:49:34;11.20;99.90
23683;DHT22;24897;53.514;10.482;2023-11-19T16:52:18;11.20;99.90
23683;DHT22;24897;53.514;10.482;2023-11-19T16:55:04;11.20;99.90
23683;DHT22;24897;53.514;10.482;2023-11-19T16:57:55;11.20;99.90
23683;DHT22;24897;53.514;10.482;2023-11-19T17:00:39;11.20;99.90
23683;DHT22;24897;53.514;10.482;2023-11-19T17:03:24;11.20;99.90
23683;DHT22;24897;53.514;10.482;2023-11-19T17:06:08;11.20;99.90
23683;DHT22;24897;53.514;10.482;2023-11-19T17:08:53;11.10;99.90
23683;DHT22;24897;53.514;10.482;2023-11-19T17:11:39;11.10;99.90
23683;DHT22;24897;53.514;10.482;2023-11-19T17:14:25;11.10;99.90
23683;DHT22;24897;53.514;10.482;2023-11-19T17:17:09;11.10;99.90
23683;DHT22;24897;53.514;10.482;2023-11-19T17:19:53;11.00;99.90
23683;DHT22;24897;53.514;10.482;2023-11-19T17:22:38;11.00;99.90
23683;DHT22;24897;53.514;10.482;2023-11-19T17:25:22;11.00;99.90
23683;DHT22;24897;53.514;10.482;2023-11-19T17:28:10;10.90;99.90
23683;DHT22;24897;53.514;10.482;2023-11-19T17:30:54;10.90;99.90
23683;DHT22;24897;53.514;10.482;2023-11-19T17:33:38;10.90;99.90
23683;DHT22;24897;53.514;10.482;2023-11-19T17:36:22;10.90;99.90
23683;DHT22;24897;53.514;10.482;2023-11-19T17:39:07;10.90;99.90
23683;DHT22;24897;53.514;10.482;2023-11-19T17:41:52;10.90;99.90
23683;DHT22;24897;53.514;10.482;2023-11-19T17:44:36;10.80;99.90
23683;DHT22;24897;53.514;10.482;2023-11-19T17:47:20;10.80;99.90
23683;DHT22;24897;53.514;10.482;2023-11-19T17:50:05;10.80;99.90
23683;DHT22;24897;53.514;10.482;2023-11-19T17:52:49;10.80;99.90
23683;DHT22;24897;53.514;10.482;2023-11-19T17:55:33;10.80;99.90
23683;DHT22;24897;53.514;10.482;2023-11-19T17:58:17;10.70;99.90
23683;DHT22;24897;53.514;10.482;2023-11-19T18:01:03;10.70;99.90
23683;DHT22;24897;53.514;10.482;2023-11-19T18:03:47;10.70;99.90
23683;DHT22;24897;53.514;10.482;2023-11-19T18:06:31;10.70;99.90
23683;DHT22;24897;53.514;10.482;2023-11-19T18:09:18;10.70;99.90
23683;DHT22;24897;53.514;10.482;2023-11-19T18:12:03;10.60;99.90
23683;DHT22;24897;53.514;10.482;2023-11-19T18:14:47;10.60;99.90
23683;DHT22;24897;53.514;10.482;2023-11-19T18:17:31;10.60;99.90
23683;DHT22;24897;53.514;10.482;2023-11-19T18:20:16;10.50;99.90
23683;DHT22;24897;53.514;10.482;2023-11-19T18:23:01;10.60;99.90
23683;DHT22;24897;53.514;10.482;2023-11-19T18:25:45;10.60;99.90
23683;DHT22;24897;53.514;10.482;2023-11-19T18:28:30;11.80;99.90
23683;DHT22;24897;53.514;10.482;2023-11-19T18:31:14;10.60;99.90
23683;DHT22;24897;53.514;10.482;2023-11-19T18:33:58;10.60;99.90
23683;DHT22;24897;53.514;10.482;2023-11-19T18:36:43;10.60;99.90
23683;DHT22;24897;53.514;10.482;2023-11-19T18:39:27;10.60;99.90
23683;DHT22;24897;53.514;10.482;2023-11-19T18:42:11;10.60;99.90
23683;DHT22;24897;53.514;10.482;2023-11-19T18:44:55;10.60;99.90
23683;DHT22;24897;53.514;10.482;2023-11-19T18:47:39;10.60;99.90
23683;DHT22;24897;53.514;10.482;2023-11-19T18:50:23;10.60;99.90
23683;DHT22;24897;53.514;10.482;2023-11-19T18:53:07;10.60;99.90
23683;DHT22;24897;53.514;10.482;2023-11-19T18:55:52;10.60;99.90
23683;DHT22;24897;53.514;10.482;2023-11-19T18:58:36;10.70;99.90
23683;DHT22;24897;53.514;10.482;2023-11-19T19:01:20;10.70;99.90
23683;DHT22;24897;53.514;10.482;2023-11-19T19:04:06;10.70;99.90
23683;DHT22;24897;53.514;10.482;2023-11-19T19:06:50;10.70;99.90
23683;DHT22;24897;53.514;10.482;2023-11-19T19:09:36;10.70;99.90
23683;DHT22;24897;53.514;10.482;2023-11-19T19:12:20;10.70;99.90